New Bedford, Ohio
Current Conditions -  °F | °C
As of 3:53 AM on Sunday 26 Oct 2014 (Local Time) from KPHD Reporting Station
Clear Clear  
Wind Chill: 47°   Ceiling: Unl
Heat Index: 49°   Visibility: 10mi
Dew Point: 33°   Wind: 5mph
Humidity: 54%   Direction: 310°NW
Pressure: 29.85"   Gusts: NA
Location:  40.3648°N, 81.765°W
Report Text: KPHD 260753Z AUTO 31004KT 10SM CLR 09/01 A2985 RMK AO2 SLP107 T00940006
Loading
Personal Weather Stations






























Interactive Weather Map
Tropical Storm Tracking
New forecast layout! Learn more

10-Day Weather Forecast

Advertisements
Track Severe Weather on mobile